createdAt,value
2023-03-24T00:01:57.329Z,9.10
2023-03-24T00:04:25.477Z,9.00
2023-03-24T00:06:54.146Z,9.00
2023-03-24T00:09:22.380Z,9.00
2023-03-24T00:11:50.480Z,9.08
2023-03-24T00:14:18.676Z,9.00
2023-03-24T00:16:47.104Z,9.00
2023-03-24T00:19:15.273Z,9.00
2023-03-24T00:21:44.246Z,9.00
2023-03-24T00:24:12.847Z,9.00
2023-03-24T00:26:41.416Z,8.96
2023-03-24T00:29:11.862Z,8.90
2023-03-24T00:31:41.368Z,8.90
2023-03-24T00:34:10.386Z,8.80
2023-03-24T00:36:42.218Z,8.74
2023-03-24T00:39:13.903Z,8.70
2023-03-24T00:41:45.216Z,8.80
2023-03-24T00:44:21.172Z,8.80
2023-03-24T00:46:56.855Z,8.80
2023-03-24T00:49:42.213Z,8.90
2023-03-24T00:52:14.715Z,8.82
2023-03-24T00:54:43.454Z,8.80
2023-03-24T00:57:13.005Z,8.80
2023-03-24T00:59:48.988Z,8.70
2023-03-24T01:02:24.653Z,8.70
2023-03-24T01:04:57.449Z,8.70
2023-03-24T01:07:26.625Z,8.60
2023-03-24T01:09:57.921Z,8.58
2023-03-24T01:12:31.478Z,8.50
2023-03-24T01:15:00.325Z,8.46
2023-03-24T01:17:29.711Z,8.40
2023-03-24T01:19:58.108Z,8.36
2023-03-24T01:22:30.284Z,8.34
2023-03-24T01:25:00.974Z,8.30
2023-03-24T01:27:29.354Z,8.30
2023-03-24T01:30:01.856Z,8.30
2023-03-24T01:32:30.109Z,8.26
2023-03-24T01:34:58.180Z,8.30
2023-03-24T01:37:26.348Z,8.32
2023-03-24T01:39:54.433Z,8.30
2023-03-24T01:42:24.551Z,8.24
2023-03-24T01:44:56.704Z,8.16
2023-03-24T01:47:24.972Z,8.10
2023-03-24T01:49:54.441Z,8.08
2023-03-24T01:52:25.432Z,8.00
2023-03-24T01:54:58.624Z,8.00
2023-03-24T01:57:32.645Z,8.00
2023-03-24T02:00:05.133Z,8.00
2023-03-24T02:02:44.647Z,8.00
2023-03-24T02:05:13.710Z,8.00
2023-03-24T02:07:51.066Z,8.00
2023-03-24T02:10:20.302Z,8.00
2023-03-24T02:12:48.552Z,8.00
2023-03-24T02:15:18.399Z,7.90
2023-03-24T02:18:19.173Z,7.84
2023-03-24T02:21:12.617Z,7.74
2023-03-24T02:23:55.799Z,7.64
2023-03-24T02:26:23.934Z,7.50
2023-03-24T02:29:08.405Z,7.50
2023-03-24T02:32:02.146Z,7.40
2023-03-24T02:34:58.083Z,7.50
2023-03-24T02:37:33.973Z,7.60
2023-03-24T02:40:11.786Z,7.56
2023-03-24T02:43:19.167Z,7.50
2023-03-24T02:45:57.973Z,7.60
2023-03-24T02:48:36.220Z,7.60
2023-03-24T02:51:22.999Z,7.60
2023-03-24T02:54:09.553Z,7.60
2023-03-24T02:56:44.611Z,7.70
2023-03-24T02:59:42.132Z,7.80
2023-03-24T03:02:30.646Z,7.80
2023-03-24T03:05:08.147Z,7.80
2023-03-24T03:07:37.700Z,7.80
2023-03-24T03:10:12.362Z,7.72
2023-03-24T03:12:40.468Z,7.70
2023-03-24T03:15:14.407Z,7.70
2023-03-24T03:18:08.737Z,7.70
2023-03-24T03:20:50.759Z,7.68
2023-03-24T03:23:24.078Z,7.60
2023-03-24T03:25:53.980Z,7.50
2023-03-24T03:28:23.615Z,7.50
2023-03-24T03:30:57.724Z,7.40
2023-03-24T03:33:31.262Z,7.30
2023-03-24T03:36:05.520Z,7.30
2023-03-24T03:38:48.123Z,7.30
2023-03-24T03:41:18.368Z,7.30
2023-03-24T03:43:47.670Z,7.34
2023-03-24T03:46:16.681Z,7.30
2023-03-24T03:48:45.556Z,7.20
2023-03-24T03:51:14.621Z,7.10
2023-03-24T03:53:51.670Z,7.06
2023-03-24T03:56:22.758Z,7.00
2023-03-24T03:59:00.468Z,6.90
2023-03-24T04:01:30.052Z,6.90
2023-03-24T04:04:10.637Z,6.80
2023-03-24T04:07:40.589Z,6.72
2023-03-24T04:10:23.649Z,6.60
2023-03-24T04:13:14.767Z,6.40
2023-03-24T04:16:28.507Z,6.40
2023-03-24T04:19:11.826Z,6.50
2023-03-24T04:22:04.777Z,6.60
2023-03-24T04:24:45.490Z,6.62
2023-03-24T04:27:38.524Z,6.70
2023-03-24T04:30:16.917Z,6.60
2023-03-24T04:32:58.553Z,6.60
2023-03-24T04:35:33.151Z,6.60
2023-03-24T04:38:17.291Z,6.50
2023-03-24T04:40:49.637Z,6.42
2023-03-24T04:43:19.183Z,6.48
2023-03-24T04:45:50.385Z,6.50
2023-03-24T04:48:50.949Z,6.40
2023-03-24T04:51:32.050Z,6.40
2023-03-24T04:54:06.096Z,6.40
2023-03-24T04:56:47.811Z,6.40
2023-03-24T04:59:24.556Z,6.36
2023-03-24T05:01:52.639Z,6.40
2023-03-24T05:04:28.170Z,6.40
2023-03-24T05:06:56.694Z,6.50
2023-03-24T05:09:26.461Z,6.50
2023-03-24T05:11:54.462Z,6.60
2023-03-24T05:14:23.501Z,6.60
2023-03-24T05:16:51.877Z,6.80
2023-03-24T05:19:20.952Z,6.90
2023-03-24T05:21:49.020Z,7.00
2023-03-24T05:24:17.164Z,7.20
2023-03-24T05:26:45.701Z,7.30
2023-03-24T05:29:18.673Z,7.40
2023-03-24T05:31:54.132Z,7.50
2023-03-24T05:34:23.504Z,7.60
2023-03-24T05:37:20.945Z,7.70
2023-03-24T05:39:51.277Z,7.90
2023-03-24T05:42:51.745Z,8.00
2023-03-24T05:45:19.951Z,8.12
2023-03-24T05:47:48.448Z,8.30
2023-03-24T05:50:17.171Z,8.34
2023-03-24T05:52:46.404Z,8.40
2023-03-24T05:55:53.775Z,8.50
2023-03-24T05:58:45.165Z,8.60
2023-03-24T06:01:13.460Z,8.70
2023-03-24T06:03:41.771Z,8.80
2023-03-24T06:06:16.857Z,9.00
2023-03-24T06:08:45.375Z,9.10
2023-03-24T06:11:14.137Z,9.20
2023-03-24T06:13:50.930Z,9.30
2023-03-24T06:16:24.016Z,9.46
2023-03-24T06:19:04.487Z,9.54
2023-03-24T06:22:11.759Z,9.60
2023-03-24T06:24:40.351Z,9.70
2023-03-24T06:27:11.518Z,9.80
2023-03-24T06:29:42.384Z,10.00
2023-03-24T06:32:11.236Z,10.10
2023-03-24T06:34:42.739Z,10.10
2023-03-24T06:37:23.445Z,10.20
2023-03-24T06:39:52.243Z,10.34
2023-03-24T06:42:22.774Z,10.40
2023-03-24T06:44:51.460Z,10.50
2023-03-24T06:47:19.600Z,10.60
2023-03-24T06:49:47.683Z,10.68
2023-03-24T06:52:15.714Z,10.70
2023-03-24T06:54:43.807Z,10.72
2023-03-24T06:57:12.211Z,10.80
2023-03-24T07:00:09.013Z,10.90
2023-03-24T07:02:42.881Z,10.90
2023-03-24T07:05:11.435Z,11.00
2023-03-24T07:10:43.578Z,11.30
2023-03-24T07:13:15.012Z,11.40
2023-03-24T07:15:43.080Z,11.40
2023-03-24T07:18:16.362Z,11.52
2023-03-24T07:20:46.532Z,11.70
2023-03-24T07:23:19.498Z,11.76
2023-03-24T07:25:58.182Z,11.80
2023-03-24T07:28:45.631Z,11.90
2023-03-24T07:31:16.173Z,12.00
2023-03-24T07:33:44.387Z,12.08
2023-03-24T07:36:12.535Z,12.10
2023-03-24T07:38:40.917Z,12.20
2023-03-24T07:41:12.404Z,12.30
2023-03-24T07:43:42.829Z,12.40
2023-03-24T07:46:21.762Z,12.50
2023-03-24T07:48:50.166Z,12.60
2023-03-24T07:51:19.983Z,12.70
2023-03-24T07:53:54.747Z,12.70
2023-03-24T07:56:28.894Z,12.90
2023-03-24T07:58:58.541Z,12.96
2023-03-24T08:01:57.609Z,13.00
2023-03-24T08:04:45.412Z,13.10
2023-03-24T08:07:30.181Z,13.20
2023-03-24T08:09:58.123Z,13.30
2023-03-24T08:12:26.400Z,13.40
2023-03-24T08:14:54.605Z,13.50
2023-03-24T08:17:22.671Z,13.60
2023-03-24T08:19:59.523Z,13.70
2023-03-24T08:22:29.002Z,13.80
2023-03-24T08:24:57.088Z,13.90
2023-03-24T08:27:25.671Z,14.00
2023-03-24T08:29:54.103Z,14.10
2023-03-24T08:32:22.469Z,14.20
2023-03-24T08:34:50.496Z,14.30
2023-03-24T08:37:18.584Z,14.40
2023-03-24T08:39:46.931Z,14.50
2023-03-24T08:42:15.221Z,14.60
2023-03-24T08:44:43.369Z,14.70
2023-03-24T08:47:11.351Z,14.80
2023-03-24T08:49:39.425Z,14.90
2023-03-24T08:52:08.520Z,15.00
2023-03-24T08:54:36.596Z,15.10
2023-03-24T08:57:04.756Z,15.20
2023-03-24T08:59:32.767Z,15.40
2023-03-24T09:02:00.998Z,15.50
2023-03-24T09:04:36.429Z,15.70
2023-03-24T09:07:06.077Z,15.90
2023-03-24T09:09:54.477Z,16.10
2023-03-24T09:12:22.599Z,16.40
2023-03-24T09:14:50.907Z,16.60
2023-03-24T09:17:18.911Z,16.80
2023-03-24T09:19:47.570Z,17.00
2023-03-24T09:22:16.035Z,17.20
2023-03-24T09:24:44.556Z,17.40
2023-03-24T09:27:12.569Z,17.60
2023-03-24T09:29:40.606Z,17.70
2023-03-24T09:32:08.789Z,17.90
2023-03-24T09:34:38.419Z,18.06
2023-03-24T09:37:06.470Z,18.10
2023-03-24T09:39:37.683Z,18.20
2023-03-24T09:42:06.394Z,18.30
2023-03-24T09:44:41.108Z,18.40
2023-03-24T09:47:35.239Z,18.60
2023-03-24T09:50:17.829Z,18.70
2023-03-24T09:52:46.871Z,18.80
2023-03-24T09:55:21.568Z,18.90
2023-03-24T09:57:49.885Z,19.00
2023-03-24T10:00:28.085Z,19.10
2023-03-24T10:02:59.133Z,19.10
2023-03-24T10:05:37.781Z,19.20
2023-03-24T10:08:24.008Z,19.40
2023-03-24T10:11:22.532Z,19.40
2023-03-24T10:14:03.864Z,19.50
2023-03-24T10:16:49.570Z,19.60
2023-03-24T10:19:48.314Z,19.70
2023-03-24T10:22:37.744Z,19.74
2023-03-24T10:25:50.148Z,20.00
2023-03-24T10:28:25.364Z,20.10
2023-03-24T10:30:54.333Z,20.20
2023-03-24T10:33:22.341Z,20.40
2023-03-24T10:36:02.203Z,20.56
2023-03-24T10:38:30.433Z,20.70
2023-03-24T10:40:58.812Z,21.10
2023-03-24T10:43:26.914Z,21.30
2023-03-24T10:45:58.568Z,21.56
2023-03-24T10:48:42.402Z,21.70
2023-03-24T10:51:16.300Z,21.98
2023-03-24T10:53:47.926Z,22.08
2023-03-24T10:56:17.722Z,22.20
2023-03-24T10:58:48.475Z,22.20
2023-03-24T11:01:30.638Z,22.42
2023-03-24T11:04:00.810Z,22.60
2023-03-24T11:06:28.964Z,22.58
2023-03-24T11:09:11.609Z,22.68
2023-03-24T11:11:40.162Z,22.78
2023-03-24T11:14:19.555Z,22.92
2023-03-24T11:16:47.738Z,22.90
2023-03-24T11:19:23.688Z,23.02
2023-03-24T11:21:52.652Z,22.92
2023-03-24T11:24:20.792Z,22.90
2023-03-24T11:27:02.295Z,22.80
2023-03-24T11:29:34.273Z,22.80
2023-03-24T11:32:03.723Z,23.06
2023-03-24T11:34:38.953Z,22.40
2023-03-24T11:37:34.705Z,22.50
2023-03-24T11:40:17.677Z,22.40
2023-03-24T11:42:46.846Z,22.56
2023-03-24T11:45:21.200Z,22.50
2023-03-24T11:47:49.300Z,22.50
2023-03-24T11:50:26.305Z,22.70
2023-03-24T11:53:11.396Z,22.52
2023-03-24T11:55:48.366Z,22.54
2023-03-24T11:58:33.888Z,22.20
2023-03-24T12:01:10.712Z,22.28
2023-03-24T12:04:17.578Z,22.10
2023-03-24T12:07:32.522Z,22.20
2023-03-24T12:10:38.216Z,22.20
2023-03-24T12:13:35.801Z,22.30
2023-03-24T12:16:36.358Z,22.20
2023-03-24T12:19:23.917Z,22.22
2023-03-24T12:22:23.133Z,22.20
2023-03-24T12:25:06.400Z,22.20
2023-03-24T12:27:46.373Z,22.20
2023-03-24T12:30:26.784Z,22.24
2023-03-24T12:33:04.142Z,22.30
2023-03-24T12:35:57.036Z,22.30
2023-03-24T12:38:47.508Z,22.30
2023-03-24T12:41:25.162Z,22.30
2023-03-24T12:44:28.826Z,22.30
2023-03-24T12:47:03.354Z,22.12
2023-03-24T12:49:37.851Z,22.20
2023-03-24T12:52:24.765Z,22.20
2023-03-24T12:55:19.401Z,22.30
2023-03-24T12:57:50.568Z,22.30
2023-03-24T13:00:20.782Z,22.20
2023-03-24T13:02:51.714Z,22.30
2023-03-24T13:05:23.011Z,22.30
2023-03-24T13:07:54.313Z,22.24
2023-03-24T13:10:25.739Z,22.32
2023-03-24T13:13:14.060Z,22.02
2023-03-24T13:15:53.988Z,22.10
2023-03-24T13:18:26.365Z,22.20
2023-03-24T13:21:05.010Z,22.22
2023-03-24T13:23:47.298Z,22.30
2023-03-24T13:26:34.193Z,22.30
2023-03-24T13:29:04.957Z,22.30
2023-03-24T13:31:39.313Z,22.20
2023-03-24T13:34:15.495Z,22.30
2023-03-24T13:36:48.847Z,22.38
2023-03-24T13:39:20.845Z,22.30
2023-03-24T13:41:51.084Z,22.30
2023-03-24T13:44:31.144Z,22.30
2023-03-24T13:47:17.824Z,22.32
2023-03-24T13:50:06.349Z,22.20
2023-03-24T13:52:37.839Z,22.14
2023-03-24T13:55:13.100Z,21.98
2023-03-24T13:57:55.909Z,21.90
2023-03-24T14:00:25.119Z,21.80
2023-03-24T14:02:58.457Z,21.76
2023-03-24T14:05:26.605Z,21.80
2023-03-24T14:08:16.068Z,22.00
2023-03-24T14:10:50.187Z,22.00
2023-03-24T14:13:18.180Z,22.00
2023-03-24T14:15:49.637Z,22.12
2023-03-24T14:18:24.021Z,22.10
2023-03-24T14:20:58.434Z,21.96
2023-03-24T14:23:46.925Z,22.00
2023-03-24T14:26:35.432Z,21.90
2023-03-24T14:29:03.858Z,21.70
2023-03-24T14:31:33.770Z,21.80
2023-03-24T14:34:25.437Z,21.80
2023-03-24T14:37:07.799Z,21.72
2023-03-24T14:39:46.480Z,21.68
2023-03-24T14:42:35.833Z,21.70
2023-03-24T14:45:05.761Z,21.64
2023-03-24T14:47:35.037Z,21.58
2023-03-24T14:50:20.074Z,21.50
2023-03-24T14:52:53.313Z,21.40
2023-03-24T14:55:23.348Z,21.30
2023-03-24T14:58:02.624Z,21.20
2023-03-24T15:00:40.629Z,21.10
2023-03-24T15:03:38.208Z,21.08
2023-03-24T15:06:20.186Z,20.94
2023-03-24T15:08:52.596Z,20.88
2023-03-24T15:11:23.084Z,20.80
2023-03-24T15:13:53.795Z,20.72
2023-03-24T15:16:24.764Z,20.70
2023-03-24T15:19:16.054Z,20.60
2023-03-24T15:21:48.697Z,20.60
2023-03-24T15:24:25.311Z,20.46
2023-03-24T15:27:11.132Z,20.40
2023-03-24T15:29:40.508Z,20.30
2023-03-24T15:32:19.398Z,20.20
2023-03-24T15:34:52.412Z,20.10
2023-03-24T15:37:40.503Z,20.00
2023-03-24T15:40:31.715Z,19.90
2023-03-24T15:43:04.992Z,19.80
2023-03-24T15:46:12.038Z,19.70
2023-03-24T15:48:41.103Z,19.60
2023-03-24T15:51:11.617Z,19.56
2023-03-24T15:53:49.353Z,19.50
2023-03-24T15:56:20.332Z,19.40
2023-03-24T15:59:06.588Z,19.30
2023-03-24T16:01:38.935Z,19.20
2023-03-24T16:04:14.369Z,19.20
2023-03-24T16:06:53.958Z,19.06
2023-03-24T16:09:22.468Z,18.94
2023-03-24T16:11:50.452Z,18.90
2023-03-24T16:14:26.443Z,18.80
2023-03-24T16:16:56.020Z,18.66
2023-03-24T16:19:25.064Z,18.52
2023-03-24T16:21:54.845Z,18.42
2023-03-24T16:24:23.126Z,18.30
2023-03-24T16:26:51.140Z,18.22
2023-03-24T16:29:22.541Z,18.20
2023-03-24T16:31:52.777Z,18.10
2023-03-24T16:34:21.392Z,18.00
2023-03-24T16:36:50.842Z,17.90
2023-03-24T16:39:26.163Z,17.80
2023-03-24T16:41:54.407Z,17.70
2023-03-24T16:44:22.626Z,17.60
2023-03-24T16:46:51.871Z,17.50
2023-03-24T16:49:20.469Z,17.48
2023-03-24T16:51:48.651Z,17.40
2023-03-24T16:54:16.791Z,17.36
2023-03-24T16:56:44.851Z,17.30
2023-03-24T16:59:15.007Z,17.20
2023-03-24T17:01:45.382Z,17.10
2023-03-24T17:04:19.400Z,17.00
2023-03-24T17:06:49.437Z,16.90
2023-03-24T17:09:17.509Z,16.80
2023-03-24T17:11:48.074Z,16.70
2023-03-24T17:14:16.748Z,16.70
2023-03-24T17:16:45.550Z,16.60
2023-03-24T17:19:15.491Z,16.50
2023-03-24T17:22:03.458Z,16.40
2023-03-24T17:24:41.796Z,16.32
2023-03-24T17:27:20.054Z,16.24
2023-03-24T17:29:50.403Z,16.20
2023-03-24T17:32:22.248Z,16.10
2023-03-24T17:34:53.436Z,16.00
2023-03-24T17:37:21.759Z,15.90
2023-03-24T17:39:49.886Z,15.86
2023-03-24T17:42:17.976Z,15.80
2023-03-24T17:44:46.117Z,15.74
2023-03-24T17:47:14.199Z,15.70
2023-03-24T17:49:42.715Z,15.62
2023-03-24T17:52:10.944Z,15.60
2023-03-24T17:54:39.038Z,15.50
2023-03-24T17:57:07.452Z,15.40
2023-03-24T17:59:40.903Z,15.30
2023-03-24T18:02:10.523Z,15.20
2023-03-24T18:04:38.660Z,14.98
2023-03-24T18:07:06.627Z,14.82
2023-03-24T18:09:34.929Z,14.76
2023-03-24T18:12:05.783Z,14.70
2023-03-24T18:14:34.069Z,14.70
2023-03-24T18:17:02.977Z,14.66
2023-03-24T18:19:31.606Z,14.60
2023-03-24T18:21:59.791Z,14.50
2023-03-24T18:24:27.972Z,14.46
2023-03-24T18:26:56.085Z,14.46
2023-03-24T18:29:24.289Z,14.50
2023-03-24T18:31:52.529Z,14.40
2023-03-24T18:34:23.127Z,14.50
2023-03-24T18:36:51.152Z,14.60
2023-03-24T18:39:19.306Z,14.70
2023-03-24T18:41:48.140Z,14.80
2023-03-24T18:44:16.500Z,14.90
2023-03-24T18:46:44.754Z,15.00
2023-03-24T18:49:13.950Z,15.00
2023-03-24T18:51:43.552Z,15.00
2023-03-24T18:54:12.846Z,14.90
2023-03-24T18:56:41.932Z,15.00
2023-03-24T18:59:11.650Z,15.00
2023-03-24T19:01:39.760Z,15.00
2023-03-24T19:04:09.331Z,15.10
2023-03-24T19:06:42.298Z,15.06
2023-03-24T19:09:11.225Z,15.00
2023-03-24T19:11:41.134Z,14.96
2023-03-24T19:14:11.838Z,14.90
2023-03-24T19:16:39.933Z,14.80
2023-03-24T19:19:09.867Z,14.80
2023-03-24T19:21:40.445Z,14.74
2023-03-24T19:24:09.035Z,14.70
2023-03-24T19:26:37.072Z,14.70
2023-03-24T19:29:05.240Z,14.60
2023-03-24T19:31:35.420Z,14.52
2023-03-24T19:34:03.700Z,14.50
2023-03-24T19:36:52.168Z,14.40
2023-03-24T19:39:32.008Z,14.38
2023-03-24T19:42:28.370Z,14.30
2023-03-24T19:44:59.119Z,14.30
2023-03-24T19:47:27.368Z,14.30
2023-03-24T19:49:56.904Z,14.24
2023-03-24T19:52:24.959Z,14.20
2023-03-24T19:54:53.015Z,14.10
2023-03-24T19:57:21.926Z,14.04
2023-03-24T19:59:50.267Z,13.92
2023-03-24T20:02:18.609Z,13.90
2023-03-24T20:04:46.649Z,13.90
2023-03-24T20:07:14.657Z,13.90
2023-03-24T20:09:42.738Z,13.84
2023-03-24T20:12:10.933Z,13.90
2023-03-24T20:14:43.301Z,13.90
2023-03-24T20:17:42.575Z,13.90
2023-03-24T20:20:39.489Z,13.80
2023-03-24T20:23:10.537Z,13.80
2023-03-24T20:25:45.764Z,13.80
2023-03-24T20:28:13.886Z,13.80
2023-03-24T20:30:46.070Z,13.80
2023-03-24T20:33:22.353Z,13.80
2023-03-24T20:35:51.569Z,13.80
2023-03-24T20:38:20.772Z,13.80
2023-03-24T20:41:07.110Z,13.76
2023-03-24T20:43:37.540Z,13.60
2023-03-24T20:46:09.256Z,13.50
2023-03-24T20:48:37.404Z,13.40
2023-03-24T20:51:08.317Z,13.40
2023-03-24T20:53:37.540Z,13.30
2023-03-24T20:56:08.315Z,13.24
2023-03-24T20:58:37.838Z,13.20
2023-03-24T21:01:08.099Z,13.20
2023-03-24T21:03:36.605Z,13.10
2023-03-24T21:06:08.439Z,13.10
2023-03-24T21:08:43.883Z,13.04
2023-03-24T21:11:15.646Z,12.90
2023-03-24T21:13:46.686Z,12.90
2023-03-24T21:16:14.771Z,13.00
2023-03-24T21:18:42.843Z,13.00
2023-03-24T21:21:12.464Z,13.00
2023-03-24T21:23:42.107Z,13.10
2023-03-24T21:26:15.849Z,13.00
2023-03-24T21:28:44.785Z,12.90
2023-03-24T21:31:41.948Z,12.90
2023-03-24T21:34:12.508Z,12.90
2023-03-24T21:36:40.584Z,12.90
2023-03-24T21:39:12.155Z,12.88
2023-03-24T21:41:40.491Z,12.80
2023-03-24T21:44:10.592Z,12.80
2023-03-24T21:46:42.188Z,12.72
2023-03-24T21:49:11.234Z,12.72
2023-03-24T21:51:48.356Z,12.80
2023-03-24T21:54:19.601Z,12.70
2023-03-24T21:56:48.098Z,12.70
2023-03-24T21:59:16.070Z,12.54
2023-03-24T22:01:44.660Z,12.30
2023-03-24T22:04:13.589Z,12.20
2023-03-24T22:06:41.607Z,12.10
2023-03-24T22:09:10.553Z,12.10
2023-03-24T22:11:42.898Z,12.00
2023-03-24T22:14:12.651Z,11.90
2023-03-24T22:16:40.979Z,11.80
2023-03-24T22:19:09.350Z,11.80
2023-03-24T22:21:39.548Z,11.62
2023-03-24T22:24:08.207Z,11.70
2023-03-24T22:26:36.274Z,11.78
2023-03-24T22:29:04.504Z,11.80
2023-03-24T22:31:32.613Z,11.90
2023-03-24T22:34:00.609Z,11.90
2023-03-24T22:36:28.649Z,11.90
2023-03-24T22:38:57.144Z,11.90
2023-03-24T22:41:25.346Z,11.90
2023-03-24T22:43:53.353Z,11.90
2023-03-24T22:46:22.698Z,12.00
2023-03-24T22:48:50.768Z,12.10
2023-03-24T22:51:19.573Z,12.10
2023-03-24T22:53:47.821Z,12.10
2023-03-24T22:56:16.056Z,12.10
2023-03-24T22:58:44.219Z,12.10
2023-03-24T23:01:12.524Z,12.12
2023-03-24T23:03:40.530Z,12.12
2023-03-24T23:06:10.082Z,12.20
2023-03-24T23:08:38.743Z,12.20
2023-03-24T23:11:07.181Z,12.20
2023-03-24T23:13:38.853Z,12.24
2023-03-24T23:16:07.685Z,12.20
2023-03-24T23:18:36.213Z,12.28
2023-03-24T23:21:08.028Z,12.30
2023-03-24T23:23:36.384Z,12.30
2023-03-24T23:26:25.162Z,12.40
2023-03-24T23:28:54.372Z,12.40
2023-03-24T23:31:24.968Z,12.40
2023-03-24T23:33:55.232Z,12.40
2023-03-24T23:36:28.469Z,12.30
2023-03-24T23:38:56.929Z,12.28
2023-03-24T23:41:25.044Z,12.20
2023-03-24T23:43:53.342Z,12.10
2023-03-24T23:46:22.088Z,12.02
2023-03-24T23:48:50.861Z,12.00
2023-03-24T23:51:18.891Z,12.00
2023-03-24T23:53:47.009Z,12.00
2023-03-24T23:56:15.057Z,12.10
2023-03-24T23:58:43.485Z,12.10
